Time;durP1;ratioP1;P1;durP2;ratioP2;P2;SDS_P1;SDS_P2;PMS_P1;PMS_P2;Temp;Humidity;BMP_temperature;BMP_pressure;BME280_temperature;BME280_humidity;BME280_pressure;Samples;Min_cycle;Max_cycle;Signal;HPM_P1;HPM_P2
2022/06/10 00:00:23;;;;;;;1.67;1.15;;;20.30;60.00;;;;;;5087546;28;20135;-71
2022/06/10 00:02:50;;;;;;;2.55;1.45;;;20.30;60.00;;;;;;5093691;28;20040;-71
2022/06/10 00:05:19;;;;;;;2.45;1.30;;;20.20;60.00;;;;;;5108792;28;20051;-71
2022/06/10 00:07:46;;;;;;;2.45;1.30;;;20.10;63.70;;;;;;5107964;28;20409;-71
2022/06/10 00:10:15;;;;;;;2.17;1.20;;;20.10;62.80;;;;;;5107964;28;20056;-71
2022/06/10 00:12:41;;;;;;;1.60;1.13;;;20.20;64.40;;;;;;5108771;28;20119;-70
2022/06/10 00:15:09;;;;;;;2.35;1.10;;;20.20;60.00;;;;;;5106890;28;20138;-71
2022/06/10 00:17:36;;;;;;;2.00;1.30;;;20.20;63.20;;;;;;5107319;28;20054;-71
2022/06/10 00:20:03;;;;;;;2.60;1.20;;;20.20;59.90;;;;;;5107940;28;20067;-71
2022/06/10 00:22:30;;;;;;;4.20;1.42;;;20.10;63.70;;;;;;5107648;28;20075;-71
2022/06/10 00:24:57;;;;;;;2.55;1.40;;;20.20;64.00;;;;;;5110089;28;20478;-71
2022/06/10 00:27:25;;;;;;;1.50;1.10;;;20.70;64.00;;;;;;5111406;28;20052;-71
2022/06/10 00:29:52;;;;;;;1.73;1.20;;;20.30;63.50;;;;;;5105224;28;20052;-71
2022/06/10 00:32:19;;;;;;;2.42;1.65;;;18.90;63.70;;;;;;5091035;28;20058;-71
2022/06/10 00:34:46;;;;;;;3.10;1.17;;;20.10;59.90;;;;;;5090601;28;20072;-71
2022/06/10 00:37:12;;;;;;;2.60;1.25;;;20.20;64.00;;;;;;5109163;27;20061;-71
2022/06/10 00:39:39;;;;;;;3.05;1.45;;;20.10;59.90;;;;;;5132139;27;20054;-71
2022/06/10 00:42:06;;;;;;;2.17;1.05;;;20.10;63.30;;;;;;5132217;27;20051;-71
2022/06/10 00:44:37;;;;;;;2.85;1.33;;;20.10;59.90;;;;;;5117401;27;20047;-71
2022/06/10 00:47:05;;;;;;;2.13;1.30;;;20.10;59.90;;;;;;5111593;28;20706;-71
2022/06/10 00:49:32;;;;;;;3.63;1.58;;;21.10;63.70;;;;;;5111404;28;20052;-71
2022/06/10 00:51:59;;;;;;;2.67;1.27;;;20.10;63.80;;;;;;5095974;28;20052;-72
2022/06/10 00:54:28;;;;;;;2.38;1.23;;;20.00;59.90;;;;;;5090869;28;20048;-71
2022/06/10 00:56:57;;;;;;;2.88;1.40;;;20.20;63.90;;;;;;5090483;28;20084;-71
2022/06/10 00:59:24;;;;;;;2.08;1.13;;;20.10;64.20;;;;;;5110410;28;20142;-71
2022/06/10 01:01:54;;;;;;;2.03;1.20;;;20.00;59.90;;;;;;5110531;28;20051;-71
2022/06/10 01:04:21;;;;;;;2.25;1.23;;;20.00;63.90;;;;;;5111975;28;20126;-71
2022/06/10 01:06:47;;;;;;;4.22;1.30;;;20.00;59.90;;;;;;5110537;28;20058;-70
2022/06/10 01:09:14;;;;;;;2.15;1.13;;;20.00;59.90;;;;;;5110694;28;20139;-71
2022/06/10 01:11:57;;;;;;;1.98;1.10;;;20.00;59.90;;;;;;5105670;28;20538;-71
2022/06/10 01:14:33;;;;;;;2.73;1.30;;;20.80;64.40;;;;;;5090362;28;20127;-71
2022/06/10 01:17:05;;;;;;;2.40;1.40;;;19.80;62.50;;;;;;5090136;28;20552;-71
2022/06/10 01:20:07;;;;;;;1.80;1.00;;;19.90;59.90;;;;;;5090314;28;20320;-71
2022/06/10 01:22:49;;;;;;;2.50;1.30;;;20.00;59.90;;;;;;5090529;28;20047;-71
2022/06/10 01:25:40;;;;;;;2.95;1.30;;;19.80;64.10;;;;;;5092563;28;20058;-71
2022/06/10 01:28:10;;;;;;;1.88;1.25;;;19.80;63.30;;;;;;5111836;28;20058;-71
2022/06/10 01:31:05;;;;;;;4.40;1.50;;;19.90;60.00;;;;;;5108754;28;20059;-71
2022/06/10 01:33:36;;;;;;;;;;;19.90;59.90;;;;;;5102630;28;20080;-71
2022/06/10 01:36:05;;;;;;;2.17;1.10;;;19.80;59.80;;;;;;5110910;28;20392;-71
2022/06/10 01:38:37;;;;;;;2.05;1.10;;;19.80;60.10;;;;;;5110246;28;20130;-71
2022/06/10 01:41:08;;;;;;;2.53;1.10;;;20.20;64.40;;;;;;5094245;28;20139;-71
2022/06/10 01:43:39;;;;;;;4.25;1.20;;;19.80;60.00;;;;;;5090713;28;20044;-71
2022/06/10 01:46:10;;;;;;;2.85;1.40;;;20.00;63.80;;;;;;5089255;28;20050;-71
2022/06/10 01:48:40;;;;;;;2.10;1.25;;;19.80;59.90;;;;;;5090071;28;20079;-71
2022/06/10 01:51:10;;;;;;;1.83;1.15;;;19.70;64.00;;;;;;5089824;28;20509;-71
2022/06/10 01:53:39;;;;;;;1.73;1.10;;;19.80;63.40;;;;;;5100449;28;20547;-71
2022/06/10 01:56:08;;;;;;;2.67;1.20;;;20.10;63.20;;;;;;5110031;28;20130;-71
2022/06/10 01:58:37;;;;;;;2.28;1.40;;;20.00;64.00;;;;;;5110134;28;20051;-71
2022/06/10 02:01:06;;;;;;;1.30;1.10;;;19.70;62.90;;;;;;5109828;28;20052;-71
2022/06/10 02:03:36;;;;;;;1.77;1.10;;;19.80;60.00;;;;;;5109213;28;20047;-70
2022/06/10 02:06:06;;;;;;;2.10;1.17;;;19.80;60.00;;;;;;5109972;28;20704;-71
2022/06/10 02:08:34;;;;;;;1.55;1.02;;;19.80;60.00;;;;;;5109318;28;20056;-70
2022/06/10 02:11:03;;;;;;;2.53;1.35;;;19.80;60.00;;;;;;5110057;28;20117;-71
2022/06/10 02:13:31;;;;;;;1.05;0.90;;;19.90;63.70;;;;;;5109437;28;20044;-71
2022/06/10 02:16:00;;;;;;;1.48;1.10;;;19.70;60.00;;;;;;5109816;28;20061;-71
2022/06/10 02:18:29;;;;;;;2.00;1.20;;;20.80;64.10;;;;;;5109719;28;20130;-71
2022/06/10 02:20:59;;;;;;;2.45;1.20;;;19.70;59.90;;;;;;5104168;28;20059;-71
2022/06/10 02:23:27;;;;;;;2.22;1.10;;;19.70;59.90;;;;;;5088695;28;20485;-71
2022/06/10 02:25:56;;;;;;;1.63;1.00;;;19.30;63.40;;;;;;5088889;28;20083;-71
2022/06/10 02:28:26;;;;;;;1.50;1.17;;;19.60;64.10;;;;;;5089067;28;20143;-71
2022/06/10 02:30:54;;;;;;;1.75;1.10;;;19.60;59.90;;;;;;5089178;28;20392;-71
2022/06/10 02:33:21;;;;;;;1.55;1.13;;;19.70;63.20;;;;;;5088953;28;20135;-71
2022/06/10 02:35:51;;;;;;;2.55;1.13;;;19.40;62.60;;;;;;5100766;28;20051;-71
2022/06/10 02:38:24;;;;;;;2.08;1.20;;;20.60;64.20;;;;;;5109289;28;20062;-71
2022/06/10 02:40:54;;;;;;;2.00;1.20;;;19.00;64.00;;;;;;5109437;28;20057;-71
2022/06/10 02:43:24;;;;;;;2.53;1.30;;;19.60;63.10;;;;;;5108872;28;20160;-71
2022/06/10 02:45:54;;;;;;;1.90;1.10;;;20.40;63.50;;;;;;5109027;28;20056;-71
2022/06/10 02:48:23;;;;;;;2.83;1.10;;;19.60;59.90;;;;;;5107640;28;20413;-71
2022/06/10 02:50:50;;;;;;;1.73;1.10;;;19.50;63.50;;;;;;5088881;28;20055;-71
2022/06/10 02:53:17;;;;;;;1.55;1.05;;;19.40;63.00;;;;;;5088423;28;20055;-71
2022/06/10 02:55:45;;;;;;;3.33;1.67;;;19.60;62.70;;;;;;5088671;28;20676;-71
2022/06/10 03:01:14;;;;;;;2.00;1.13;;;19.50;59.90;;;;;;5108506;28;20043;-71
2022/06/10 03:03:47;;;;;;;1.52;1.10;;;18.90;62.90;;;;;;5099612;28;20137;-71
2022/06/10 03:06:16;;;;;;;2.25;1.15;;;19.80;63.50;;;;;;5088555;28;20142;-71
2022/06/10 03:08:44;;;;;;;2.13;1.10;;;19.50;63.50;;;;;;5089586;28;20055;-71
2022/06/10 03:11:15;;;;;;;1.88;1.17;;;19.50;59.90;;;;;;5088264;28;20058;-71
2022/06/10 03:13:51;;;;;;;1.45;1.10;;;18.60;63.20;;;;;;5087961;28;20051;-71
2022/06/10 03:16:29;;;;;;;1.60;1.00;;;19.60;63.50;;;;;;5088222;28;20417;-71
2022/06/10 03:19:03;;;;;;;1.60;1.10;;;19.50;59.90;;;;;;5088692;28;20055;-71
2022/06/10 03:21:36;;;;;;;2.30;1.17;;;20.50;64.30;;;;;;5103165;28;20036;-71
2022/06/10 03:24:08;;;;;;;2.20;1.05;;;20.80;65.10;;;;;;5087971;28;20067;-71
2022/06/10 03:26:40;;;;;;;2.88;1.08;;;19.50;64.00;;;;;;5087734;28;20058;-71
2022/06/10 03:29:10;;;;;;;2.40;1.10;;;19.50;59.90;;;;;;5089776;28;20545;-71
2022/06/10 03:31:38;;;;;;;2.00;1.20;;;19.50;59.90;;;;;;5088121;28;20058;-71
2022/06/10 03:34:07;;;;;;;1.52;1.20;;;18.30;63.10;;;;;;5087723;28;20474;-71
2022/06/10 03:36:34;;;;;;;1.60;1.17;;;19.50;63.50;;;;;;5095608;27;20074;-71
2022/06/10 03:39:01;;;;;;;2.80;1.10;;;19.40;59.80;;;;;;5128558;27;20051;-70
2022/06/10 03:41:31;;;;;;;2.00;1.20;;;19.30;62.90;;;;;;5129916;27;20134;-71
2022/06/10 03:44:01;;;;;;;1.73;1.10;;;19.40;64.30;;;;;;5128106;27;20053;-71
2022/06/10 03:46:29;;;;;;;1.52;1.10;;;19.40;59.80;;;;;;5128683;27;20138;-72
2022/06/10 03:48:57;;;;;;;1.67;1.10;;;19.40;59.80;;;;;;5128380;27;20139;-72
2022/06/10 03:51:23;;;;;;;2.40;1.25;;;19.40;59.80;;;;;;5128544;27;20645;-72
2022/06/10 03:53:50;;;;;;;1.42;1.10;;;18.80;63.70;;;;;;5091584;28;20056;-72
2022/06/10 03:56:21;;;;;;;1.55;1.02;;;19.40;59.80;;;;;;5108935;28;20052;-72
2022/06/10 04:03:15;;;;;;;2.05;1.20;;;18.80;64.00;;;;;;5110648;28;20503;-72
2022/06/10 04:05:44;;;;;;;1.27;1.00;;;19.40;63.00;;;;;;5107665;28;20087;-72
2022/06/10 04:08:11;;;;;;;1.90;1.10;;;18.90;63.60;;;;;;5107273;28;20051;-72
2022/06/10 04:10:37;;;;;;;2.85;1.20;;;19.10;63.50;;;;;;5107581;28;20083;-72
2022/06/10 04:13:04;;;;;;;2.22;1.02;;;19.30;64.60;;;;;;5107066;28;20096;-72
2022/06/10 04:15:32;;;;;;;1.42;1.00;;;19.30;59.80;;;;;;5109052;28;20668;-72
2022/06/10 04:17:59;;;;;;;2.50;1.15;;;19.20;64.10;;;;;;5107576;28;20048;-72
2022/06/10 04:20:27;;;;;;;2.40;1.23;;;19.70;63.80;;;;;;5108131;28;20059;-72
2022/06/10 04:22:55;;;;;;;2.70;1.17;;;19.30;63.20;;;;;;5107364;28;20051;-71
2022/06/10 04:25:22;;;;;;;2.15;1.20;;;19.30;59.80;;;;;;5104257;28;20050;-72
2022/06/10 04:27:48;;;;;;;2.25;1.10;;;19.20;64.20;;;;;;5107325;28;20058;-72
2022/06/10 04:30:23;;;;;;;3.40;1.30;;;19.30;59.70;;;;;;5107879;28;20055;-72
2022/06/10 04:32:50;;;;;;;;;;;19.30;59.70;;;;;;5107860;28;20568;-72
2022/06/10 04:35:17;;;;;;;1.42;1.15;;;19.30;59.70;;;;;;5108010;28;20428;-72
2022/06/10 04:37:44;;;;;;;1.10;1.00;;;20.60;64.60;;;;;;5107661;28;20057;-72
2022/06/10 04:40:15;;;;;;;1.80;1.00;;;19.30;59.80;;;;;;5107587;28;20453;-72
2022/06/10 04:42:42;;;;;;;2.17;1.27;;;19.60;63.20;;;;;;5092551;28;20486;-72
2022/06/10 04:45:09;;;;;;;4.03;1.52;;;18.80;63.90;;;;;;5086579;28;20054;-72
2022/06/10 04:47:36;;;;;;;2.45;1.23;;;19.30;59.70;;;;;;5087228;28;20095;-72
2022/06/10 04:50:03;;;;;;;2.30;1.20;;;19.20;63.10;;;;;;5086541;28;20048;-72
2022/06/10 04:52:29;;;;;;;1.85;1.17;;;19.30;59.80;;;;;;5108568;28;20044;-72
2022/06/10 04:54:56;;;;;;;1.58;1.00;;;19.30;59.70;;;;;;5108552;28;20052;-72
2022/06/10 04:57:24;;;;;;;1.73;1.10;;;19.40;63.50;;;;;;5107252;28;20053;-72
2022/06/10 04:59:51;;;;;;;1.50;1.10;;;19.20;64.20;;;;;;5108531;28;20563;-72
2022/06/10 05:02:18;;;;;;;1.48;1.00;;;19.50;63.60;;;;;;5108174;28;20513;-72
2022/06/10 05:04:44;;;;;;;1.90;1.20;;;19.20;63.90;;;;;;5107147;28;20135;-71
2022/06/10 05:07:11;;;;;;;3.08;1.15;;;19.20;63.10;;;;;;5108312;28;20703;-71
2022/06/10 05:09:38;;;;;;;3.58;1.20;;;19.30;59.70;;;;;;5107359;28;20051;-71
2022/06/10 05:12:06;;;;;;;2.17;1.10;;;19.30;59.70;;;;;;5109372;28;20062;-71
2022/06/10 05:14:34;;;;;;;2.28;1.20;;;19.30;59.70;;;;;;5110052;28;20118;-71
2022/06/10 05:17:01;;;;;;;1.83;1.15;;;19.20;59.60;;;;;;5111102;28;20078;-71
2022/06/10 05:19:29;;;;;;;2.20;1.17;;;19.30;59.60;;;;;;5110891;28;20050;-71
2022/06/10 05:21:56;;;;;;;1.77;1.25;;;19.30;59.60;;;;;;5111076;28;20132;-71
2022/06/10 05:24:23;;;;;;;2.05;1.20;;;19.10;62.90;;;;;;5110545;28;20043;-71
2022/06/10 05:26:50;;;;;;;2.33;1.23;;;19.20;63.70;;;;;;5110357;28;20056;-71
2022/06/10 05:29:16;;;;;;;1.70;1.10;;;19.20;64.30;;;;;;5110748;28;20058;-71
2022/06/10 05:31:44;;;;;;;2.60;1.20;;;19.30;59.70;;;;;;5094834;28;20138;-71
2022/06/10 05:36:55;;;;;;;1.77;1.05;;;19.00;63.80;;;;;;5096051;28;20051;-71
2022/06/10 05:39:22;;;;;;;1.58;1.10;;;19.60;64.40;;;;;;5110672;28;20573;-71
2022/06/10 05:42:07;;;;;;;2.17;1.30;;;19.70;64.10;;;;;;5110780;28;20055;-71
2022/06/10 05:44:34;;;;;;;1.85;1.15;;;19.70;63.50;;;;;;5110365;28;20044;-71
2022/06/10 05:47:03;;;;;;;2.08;0.90;;;19.60;63.20;;;;;;5100993;28;20056;-71
2022/06/10 05:49:30;;;;;;;3.03;1.10;;;19.70;59.60;;;;;;5089971;28;20058;-71
2022/06/10 05:51:57;;;;;;;1.50;1.15;;;19.90;59.40;;;;;;5090206;28;20052;-71
2022/06/10 05:54:24;;;;;;;1.27;1.08;;;20.90;63.90;;;;;;5089792;28;20083;-71
2022/06/10 05:56:50;;;;;;;1.85;1.10;;;20.10;63.30;;;;;;5089933;28;20640;-71
2022/06/10 05:59:18;;;;;;;3.72;0.98;;;20.20;58.80;;;;;;5090084;28;20469;-71
2022/06/10 06:01:45;;;;;;;2.47;1.10;;;20.40;58.60;;;;;;5089326;28;20048;-69
2022/06/10 06:04:13;;;;;;;3.70;1.30;;;20.50;58.40;;;;;;5090151;28;20083;-70
2022/06/10 06:06:41;;;;;;;1.73;1.00;;;20.30;62.40;;;;;;5089700;28;20044;-70
2022/06/10 06:09:08;;;;;;;3.63;1.00;;;20.60;62.20;;;;;;5091151;28;20069;-70
2022/06/10 06:11:35;;;;;;;2.97;1.20;;;21.10;61.50;;;;;;5090049;28;20055;-71
2022/06/10 06:14:01;;;;;;;2.42;1.23;;;21.00;57.60;;;;;;5095721;28;20078;-70
2022/06/10 06:16:28;;;;;;;6.07;1.27;;;21.10;57.10;;;;;;5095071;28;20065;-70
2022/06/10 06:18:55;;;;;;;2.58;1.13;;;21.20;57.00;;;;;;5100315;28;20421;-70
2022/06/10 06:21:23;;;;;;;3.25;1.73;;;21.90;61.50;;;;;;5102985;28;20453;-71
2022/06/10 06:23:49;;;;;;;2.50;1.30;;;21.30;61.00;;;;;;5097991;28;20056;-70
2022/06/10 06:26:16;;;;;;;1.70;1.10;;;21.40;60.60;;;;;;5099307;28;20383;-74
2022/06/10 06:28:43;;;;;;;3.13;1.20;;;22.10;60.50;;;;;;5099971;28;20127;-70
2022/06/10 06:31:10;;;;;;;2.58;1.17;;;21.40;56.20;;;;;;5103825;28;20154;-70
2022/06/10 06:33:37;;;;;;;2.75;1.20;;;21.40;56.20;;;;;;5109446;28;20085;-70
2022/06/10 06:36:04;;;;;;;1.98;1.17;;;20.80;59.60;;;;;;5102339;28;20060;-70
2022/06/10 06:38:32;;;;;;;2.30;1.20;;;21.40;56.00;;;;;;5108241;28;20052;-70
2022/06/10 06:40:59;;;;;;;1.75;1.10;;;20.70;59.90;;;;;;5108216;28;20126;-70
2022/06/10 06:43:26;;;;;;;2.88;1.30;;;20.90;59.80;;;;;;5109353;28;20135;-70
2022/06/10 06:45:52;;;;;;;2.40;1.10;;;21.30;60.90;;;;;;5110504;28;21733;-70
2022/06/10 06:48:19;;;;;;;2.40;1.27;;;21.70;61.30;;;;;;5109546;28;20051;-70
2022/06/10 06:50:49;;;;;;;2.67;1.20;;;21.40;60.80;;;;;;5110603;28;20047;-71
2022/06/10 06:53:17;;;;;;;3.10;1.20;;;21.50;59.80;;;;;;5108873;28;20138;-70
2022/06/10 06:55:45;;;;;;;1.83;1.20;;;21.70;59.20;;;;;;5104021;28;20127;-70
2022/06/10 06:58:14;;;;;;;3.08;1.27;;;21.20;60.80;;;;;;5103248;28;20130;-71
2022/06/10 07:00:41;;;;;;;2.78;1.40;;;20.00;60.00;;;;;;5108990;28;20047;-71
2022/06/10 07:03:07;;;;;;;2.97;1.13;;;21.20;61.00;;;;;;5094270;28;20485;-71
2022/06/10 07:05:35;;;;;;;1.98;1.13;;;21.10;58.70;;;;;;5088556;28;20048;-71
2022/06/10 07:08:01;;;;;;;2.25;1.17;;;21.10;56.50;;;;;;5088179;28;20056;-71
2022/06/10 07:10:28;;;;;;;2.97;1.10;;;21.00;59.70;;;;;;5089405;28;20509;-71
2022/06/10 07:12:56;;;;;;;3.40;1.20;;;21.30;56.80;;;;;;5088302;28;20129;-71
2022/06/10 07:15:23;;;;;;;2.22;1.20;;;21.00;56.80;;;;;;5097415;28;20046;-71
2022/06/10 07:17:50;;;;;;;3.03;1.52;;;20.90;60.30;;;;;;5098925;28;20075;-71
2022/06/10 07:20:20;;;;;;;2.92;1.40;;;20.90;60.50;;;;;;5095877;28;20506;-71
2022/06/10 07:22:48;;;;;;;3.13;1.40;;;21.00;56.90;;;;;;5097376;28;20097;-71
2022/06/10 07:25:14;;;;;;;6.30;1.40;;;20.90;61.00;;;;;;5099511;28;20036;-72
2022/06/10 07:27:41;;;;;;;2.50;1.35;;;20.90;57.00;;;;;;5099329;28;20075;-72
2022/06/10 07:30:11;;;;;;;2.75;1.30;;;20.90;61.20;;;;;;5092569;28;20054;-72
2022/06/10 07:32:39;;;;;;;3.22;1.40;;;20.60;60.50;;;;;;5098200;28;20131;-72
2022/06/10 07:35:07;;;;;;;3.95;1.33;;;20.80;61.00;;;;;;5096521;28;20071;-72
2022/06/10 07:37:33;;;;;;;3.53;1.10;;;21.00;62.10;;;;;;5097694;28;20048;-72
2022/06/10 07:40:00;;;;;;;2.85;1.30;;;20.80;57.20;;;;;;5097699;28;20044;-72
2022/06/10 07:42:26;;;;;;;2.65;1.30;;;20.80;57.20;;;;;;5097840;28;20050;-72
2022/06/10 07:44:54;;;;;;;2.35;1.48;;;20.80;57.30;;;;;;5098120;28;20813;-72
2022/06/10 07:47:23;;;;;;;2.28;1.40;;;20.70;57.30;;;;;;5096817;28;20150;-72
2022/06/10 07:49:50;;;;;;;3.05;1.30;;;20.80;61.00;;;;;;5097731;28;20529;-71
2022/06/10 07:52:17;;;;;;;4.13;1.65;;;20.90;61.40;;;;;;5096846;28;20139;-71
2022/06/10 07:54:44;;;;;;;3.83;1.40;;;20.70;61.70;;;;;;5104280;28;20075;-71
2022/06/10 07:57:11;;;;;;;2.28;1.40;;;20.70;57.40;;;;;;5108165;28;20055;-71
2022/06/10 07:59:40;;;;;;;4.20;1.65;;;20.90;61.80;;;;;;5108453;28;20048;-71
2022/06/10 08:02:06;;;;;;;3.53;1.20;;;20.00;61.20;;;;;;5106422;28;20091;-71
2022/06/10 08:04:35;;;;;;;3.05;1.50;;;20.70;57.50;;;;;;5108609;28;20050;-71
2022/06/10 08:07:02;;;;;;;3.03;1.30;;;20.60;57.50;;;;;;5108060;28;20043;-71
2022/06/10 08:09:28;;;;;;;3.67;1.50;;;20.50;61.30;;;;;;5091928;28;20072;-71
2022/06/10 08:11:55;;;;;;;3.50;1.58;;;19.80;60.90;;;;;;5087870;28;20052;-71
2022/06/10 08:14:22;;;;;;;3.25;1.40;;;20.20;61.00;;;;;;5088069;28;20051;-71
2022/06/10 08:16:49;;;;;;;2.13;1.40;;;20.60;57.60;;;;;;5088797;28;20048;-71
2022/06/10 08:19:15;;;;;;;2.33;1.23;;;20.60;57.60;;;;;;5088121;28;20467;-71
2022/06/10 08:24:28;;;;;;;3.50;1.70;;;20.60;57.70;;;;;;5088438;28;20044;-72
2022/06/10 08:26:54;;;;;;;3.45;1.50;;;19.80;60.70;;;;;;5087340;28;20040;-71
2022/06/10 08:29:21;;;;;;;4.78;1.65;;;20.70;61.40;;;;;;5103775;28;20418;-72
2022/06/10 08:31:48;;;;;;;6.75;1.60;;;20.60;57.80;;;;;;5096371;28;20044;-72
2022/06/10 08:34:14;;;;;;;3.30;1.50;;;20.50;57.80;;;;;;5097917;28;20135;-72
2022/06/10 08:36:42;;;;;;;5.95;1.63;;;20.60;57.90;;;;;;5099230;28;20317;-72
2022/06/10 08:39:12;;;;;;;3.40;1.30;;;19.60;61.40;;;;;;5098209;28;20366;-72
2022/06/10 08:41:48;;;;;;;3.90;1.42;;;20.70;61.50;;;;;;5099360;28;20462;-72
2022/06/10 08:44:17;;;;;;;4.38;1.48;;;20.70;61.30;;;;;;5107536;28;20056;-72
2022/06/10 08:47:13;;;;;;;4.70;1.80;;;20.60;57.90;;;;;;5111291;28;20051;-72
2022/06/10 08:50:11;;;;;;;4.68;1.30;;;20.40;61.50;;;;;;5103115;28;20058;-72
2022/06/10 08:52:42;;;;;;;4.05;1.40;;;20.60;62.20;;;;;;5103014;28;20116;-72
2022/06/10 08:55:16;;;;;;;2.10;1.40;;;20.60;61.50;;;;;;5105854;28;20054;-72
2022/06/10 08:57:45;;;;;;;3.42;1.30;;;20.50;57.40;;;;;;5091186;28;20523;-72
2022/06/10 09:00:15;;;;;;;5.43;1.80;;;20.40;61.70;;;;;;5102709;28;20505;-72
2022/06/10 09:02:44;;;;;;;2.95;1.50;;;18.40;60.60;;;;;;5105601;28;20561;-72
2022/06/10 09:05:15;;;;;;;4.20;1.45;;;20.90;62.00;;;;;;5104911;28;20410;-72
2022/06/10 09:07:44;;;;;;;2.75;1.30;;;20.60;58.00;;;;;;5090741;28;20411;-73
2022/06/10 09:10:19;;;;;;;3.08;1.60;;;20.60;58.00;;;;;;5092287;28;20056;-72
2022/06/10 09:13:06;;;;;;;3.30;1.67;;;20.70;58.40;;;;;;5097885;28;20044;-71
2022/06/10 09:15:33;;;;;;;8.10;1.85;;;20.40;61.60;;;;;;5110887;28;20055;-73
2022/06/10 09:18:03;;;;;;;2.17;1.20;;;20.60;58.70;;;;;;5123297;27;20061;-72
2022/06/10 09:20:32;;;;;;;2.53;1.45;;;20.60;62.10;;;;;;5104483;28;20055;-72
2022/06/10 09:23:02;;;;;;;4.03;1.50;;;20.40;62.40;;;;;;5090072;28;20055;-72
2022/06/10 09:25:31;;;;;;;2.22;1.30;;;20.60;58.20;;;;;;5089853;28;20048;-72
2022/06/10 09:28:00;;;;;;;2.78;1.40;;;20.60;58.20;;;;;;5100675;28;20048;-72
2022/06/10 09:30:31;;;;;;;1.98;1.38;;;20.50;61.70;;;;;;5099147;28;20082;-71
2022/06/10 09:32:59;;;;;;;2.45;1.50;;;20.50;58.20;;;;;;5099578;28;20062;-71
2022/06/10 09:35:29;;;;;;;3.22;1.40;;;21.70;62.50;;;;;;5101750;28;20051;-72
2022/06/10 09:37:57;;;;;;;3.13;1.40;;;20.60;62.10;;;;;;5096425;28;20500;-72
2022/06/10 09:40:38;;;;;;;2.67;1.40;;;20.40;61.80;;;;;;5090180;28;20059;-72
2022/06/10 09:43:15;;;;;;;2.00;1.42;;;20.10;61.60;;;;;;5089402;28;20059;-72
2022/06/10 09:45:45;;;;;;;3.78;1.60;;;20.00;60.50;;;;;;5089645;28;20056;-71
2022/06/10 09:48:20;;;;;;;3.80;1.45;;;20.50;58.40;;;;;;5089688;28;20082;-72
2022/06/10 09:50:52;;;;;;;5.03;1.80;;;20.50;58.50;;;;;;5091561;28;20048;-71
2022/06/10 09:53:39;;;;;;;5.55;1.42;;;20.40;58.50;;;;;;5090958;28;20094;-71
2022/06/10 09:56:36;;;;;;;3.03;1.50;;;20.40;58.50;;;;;;5089515;28;20074;-72
2022/06/10 09:59:13;;;;;;;3.60;1.50;;;20.50;61.80;;;;;;5089925;28;20052;-71
2022/06/10 10:01:41;;;;;;;1.95;1.30;;;20.40;58.60;;;;;;5095520;28;20040;-71
2022/06/10 10:04:38;;;;;;;4.85;1.40;;;20.30;62.80;;;;;;5109896;28;20516;-72
2022/06/10 10:07:07;;;;;;;3.97;1.83;;;20.40;58.50;;;;;;5101749;28;20040;-72
2022/06/10 10:09:44;;;;;;;4.00;1.60;;;20.30;63.00;;;;;;5109442;28;20071;-72
2022/06/10 10:12:16;;;;;;;2.85;1.52;;;20.40;58.60;;;;;;5109937;28;20510;-71
2022/06/10 10:14:46;;;;;;;4.50;1.52;;;20.40;58.60;;;;;;5110039;28;20059;-71
2022/06/10 10:17:30;;;;;;;3.03;1.35;;;20.60;63.10;;;;;;5106222;28;20044;-71
2022/06/10 10:20:01;;;;;;;2.85;1.40;;;20.40;58.70;;;;;;5092836;27;20513;-72
2022/06/10 10:22:47;;;;;;;3.85;1.80;;;20.50;62.30;;;;;;5100419;28;20043;-71
2022/06/10 10:25:15;;;;;;;2.85;1.40;;;20.30;62.00;;;;;;5109407;28;20070;-71
2022/06/10 10:27:44;;;;;;;5.65;1.60;;;20.10;62.10;;;;;;5103227;28;20128;-71
2022/06/10 10:30:17;;;;;;;2.25;1.58;;;20.30;58.70;;;;;;5109298;28;20052;-71
2022/06/10 10:32:44;;;;;;;3.33;1.50;;;20.30;58.70;;;;;;5109743;28;20413;-71
2022/06/10 10:35:17;;;;;;;3.10;1.60;;;20.30;58.80;;;;;;5109520;28;20055;-71
2022/06/10 10:37:50;;;;;;;2.40;1.40;;;20.10;62.60;;;;;;5106565;28;20126;-71
2022/06/10 10:40:18;;;;;;;2.72;1.20;;;20.30;58.90;;;;;;5109517;28;20401;-71
2022/06/10 10:42:52;;;;;;;2.08;1.30;;;20.40;63.20;;;;;;5096741;28;20094;-71
2022/06/10 10:45:21;;;;;;;2.88;1.48;;;20.30;62.10;;;;;;5089078;28;20520;-71
2022/06/10 10:47:49;;;;;;;2.67;1.33;;;20.30;63.50;;;;;;5088745;28;20530;-71
2022/06/10 10:50:19;;;;;;;1.77;1.20;;;20.30;59.50;;;;;;5088955;28;20058;-71
2022/06/10 10:52:46;;;;;;;2.75;1.40;;;19.30;62.50;;;;;;5088633;28;20502;-71
2022/06/10 10:55:22;;;;;;;2.53;1.38;;;20.20;62.70;;;;;;5103277;28;20065;-71
2022/06/10 10:57:59;;;;;;;2.22;1.35;;;20.40;58.80;;;;;;5108453;28;20126;-71
2022/06/10 11:00:31;;;;;;;2.13;1.33;;;20.40;58.70;;;;;;5109142;28;20077;-71
2022/06/10 11:03:00;;;;;;;3.55;1.33;;;20.40;58.70;;;;;;5090573;28;20060;-71
2022/06/10 11:05:31;;;;;;;3.78;1.30;;;20.40;62.80;;;;;;5105032;28;20132;-71
2022/06/10 11:08:19;;;;;;;1.48;1.20;;;20.30;62.50;;;;;;5109767;28;20055;-72
2022/06/10 11:11:00;;;;;;;8.02;2.15;;;20.50;58.60;;;;;;5108784;28;20101;-71
2022/06/10 11:13:35;;;;;;;4.13;1.23;;;20.50;62.90;;;;;;5108706;28;20058;-72
2022/06/10 11:16:36;;;;;;;2.35;1.20;;;19.50;61.60;;;;;;5108451;28;20047;-72
2022/06/10 11:19:27;;;;;;;4.32;1.20;;;20.10;61.90;;;;;;5107987;28;20059;-72
2022/06/10 11:22:09;;;;;;;4.80;2.10;;;20.90;62.70;;;;;;5067587;28;20553;-71
2022/06/10 11:24:39;;;;;;;2.50;1.30;;;20.50;59.00;;;;;;5109161;28;20568;-71
2022/06/10 11:27:20;;;;;;;2.13;1.30;;;20.60;59.00;;;;;;5108512;28;20075;-71
2022/06/10 11:29:58;;;;;;;4.45;1.30;;;20.60;58.90;;;;;;5109662;28;20047;-71
2022/06/10 11:32:26;;;;;;;2.25;1.20;;;20.60;58.80;;;;;;5109756;28;20070;-71
2022/06/10 11:34:56;;;;;;;2.30;1.30;;;20.00;62.10;;;;;;5090553;28;20494;-71
2022/06/10 11:37:26;;;;;;;2.92;1.30;;;20.70;63.40;;;;;;5108114;28;20058;-71
2022/06/10 11:39:59;;;;;;;1.88;1.10;;;20.70;58.70;;;;;;5108578;28;20047;-71
2022/06/10 11:42:27;;;;;;;2.20;1.13;;;21.00;62.50;;;;;;5109033;28;20700;-71
2022/06/10 11:45:03;;;;;;;4.63;1.50;;;20.80;58.60;;;;;;5108322;28;20071;-71
2022/06/10 11:47:38;;;;;;;1.67;1.08;;;20.80;58.50;;;;;;5107378;28;20064;-71
2022/06/10 11:50:07;;;;;;;1.70;1.30;;;21.10;58.60;;;;;;5108247;28;20075;-71
2022/06/10 11:52:35;;;;;;;3.10;1.30;;;20.90;58.40;;;;;;5091314;28;20055;-71
2022/06/10 11:55:05;;;;;;;1.48;1.10;;;20.90;58.40;;;;;;5091008;28;20101;-71
2022/06/10 12:00:25;;;;;;;3.00;1.40;;;21.00;58.40;;;;;;5073627;28;20043;-71
2022/06/10 12:03:00;;;;;;;1.20;1.08;;;21.00;58.30;;;;;;5108444;28;20058;-71
2022/06/10 12:05:32;;;;;;;1.60;1.30;;;22.20;63.40;;;;;;5109196;28;20490;-71
2022/06/10 12:08:03;;;;;;;1.90;1.15;;;21.00;58.20;;;;;;5107428;28;20050;-71
2022/06/10 12:10:36;;;;;;;2.05;1.45;;;21.20;61.50;;;;;;5107952;28;20059;-71
2022/06/10 12:13:03;;;;;;;2.08;1.40;;;21.10;58.10;;;;;;5107864;28;20060;-71
2022/06/10 12:15:34;;;;;;;2.90;1.42;;;21.10;58.10;;;;;;5109039;28;20528;-71
2022/06/10 12:18:04;;;;;;;1.58;1.20;;;21.30;61.70;;;;;;5108968;28;20047;-71
2022/06/10 12:20:34;;;;;;;3.70;1.30;;;21.10;58.10;;;;;;5109674;28;20139;-71
2022/06/10 12:23:02;;;;;;;1.92;1.30;;;21.40;61.70;;;;;;5113381;28;20079;-71
2022/06/10 12:25:31;;;;;;;1.65;1.20;;;21.20;58.10;;;;;;5112117;28;20047;-71
2022/06/10 12:28:01;;;;;;;1.70;1.20;;;21.20;58.00;;;;;;5113008;28;20572;-71
2022/06/10 12:30:32;;;;;;;1.92;1.23;;;21.20;62.20;;;;;;5094945;28;20051;-71
2022/06/10 12:33:03;;;;;;;2.55;1.50;;;21.20;62.60;;;;;;5112937;28;20039;-72
2022/06/10 12:35:34;;;;;;;2.28;1.00;;;21.20;58.00;;;;;;5094771;28;20433;-72
2022/06/10 12:38:02;;;;;;;2.63;1.27;;;21.20;58.00;;;;;;5111810;28;20051;-72
2022/06/10 12:40:30;;;;;;;2.33;1.23;;;21.20;58.00;;;;;;5113169;28;20047;-71
2022/06/10 12:43:00;;;;;;;2.65;1.20;;;21.20;58.00;;;;;;5111565;28;20055;-71
2022/06/10 12:45:28;;;;;;;3.60;1.30;;;21.20;58.00;;;;;;5112843;28;20054;-72
2022/06/10 12:47:59;;;;;;;2.65;1.33;;;21.20;58.10;;;;;;5112398;28;20039;-70
2022/06/10 12:50:28;;;;;;;2.03;1.20;;;21.20;62.30;;;;;;5101518;28;20054;-70
2022/06/10 12:53:16;;;;;;;4.63;1.30;;;22.10;62.80;;;;;;5099235;28;20109;-71
2022/06/10 12:55:48;;;;;;;1.88;1.40;;;21.20;60.40;;;;;;5103568;28;20044;-71
2022/06/10 12:58:41;;;;;;;1.95;1.30;;;21.20;58.80;;;;;;5100542;28;20130;-71
2022/06/10 13:01:12;;;;;;;3.92;1.50;;;20.30;60.70;;;;;;5100739;28;20048;-71
2022/06/10 13:03:40;;;;;;;1.70;1.20;;;21.10;61.90;;;;;;5099829;28;20414;-71
2022/06/10 13:06:29;;;;;;;3.88;1.30;;;21.20;58.30;;;;;;5102493;28;20774;-71
2022/06/10 13:08:58;;;;;;;1.70;1.20;;;21.10;61.70;;;;;;5100121;28;20054;-71
2022/06/10 13:11:41;;;;;;;2.80;1.30;;;21.20;62.40;;;;;;5099987;28;20079;-71
2022/06/10 13:14:35;;;;;;;1.83;1.20;;;21.20;58.10;;;;;;5094689;28;20420;-71
2022/06/10 13:17:24;;;;;;;1.92;1.30;;;21.10;61.70;;;;;;5099433;28;20115;-71
2022/06/10 13:20:31;;;;;;;3.22;1.25;;;21.00;62.00;;;;;;5086019;28;20052;-71